Time;durP1;ratioP1;P1;durP2;ratioP2;P2;SDS_P1;SDS_P2;PMS_P1;PMS_P2;Temp;Humidity;BMP_temperature;BMP_pressure;BME280_temperature;BME280_humidity;BME280_pressure;Samples;Min_cycle;Max_cycle;Signal;HPM_P1;HPM_P2
2022/01/21 00:01:27;;;;;;;6.20;4.80;;;16.80;39.80;;;;;;4997907;28;20612;-69
2022/01/21 00:03:55;;;;;;;6.93;4.75;;;16.80;39.70;;;;;;4996747;28;20248;-68
2022/01/21 00:06:22;;;;;;;7.13;5.20;;;16.80;39.70;;;;;;4996603;28;20229;-70
2022/01/21 00:08:51;;;;;;;7.18;4.90;;;16.70;39.70;;;;;;4996715;28;20204;-69
2022/01/21 00:11:18;;;;;;;6.63;4.70;;;16.70;40.20;;;;;;4997983;28;20209;-69
2022/01/21 00:13:45;;;;;;;6.38;4.60;;;16.60;39.70;;;;;;4996426;28;20193;-68
2022/01/21 00:16:13;;;;;;;4.90;4.13;;;16.70;40.00;;;;;;4997595;28;20194;-69
2022/01/21 00:18:45;;;;;;;6.22;4.50;;;16.60;39.80;;;;;;4996693;28;20212;-70
2022/01/21 00:32:10;;;;;;;6.28;4.72;;;16.40;40.20;;;;;;4997359;28;20247;-68
2022/01/21 00:34:38;;;;;;;7.32;4.80;;;16.40;40.10;;;;;;4995977;28;20297;-68
2022/01/21 00:37:05;;;;;;;4.90;4.38;;;16.40;40.20;;;;;;4998345;28;20288;-71
2022/01/21 00:39:34;;;;;;;6.82;4.80;;;16.40;40.30;;;;;;4996388;28;20244;-67
2022/01/21 00:42:10;;;;;;;6.15;4.40;;;16.30;40.20;;;;;;4996316;28;20225;-67
2022/01/21 00:44:37;;;;;;;5.20;4.28;;;16.30;40.20;;;;;;4996174;28;20189;-69
2022/01/21 00:47:05;;;;;;;5.68;4.50;;;16.30;40.40;;;;;;4995292;28;20206;-68
2022/01/21 00:49:33;;;;;;;5.05;3.95;;;16.20;40.20;;;;;;4995635;28;20240;-68
2022/01/21 00:52:02;;;;;;;6.82;4.53;;;16.30;40.20;;;;;;4996969;28;20206;-69
2022/01/21 00:54:30;;;;;;;5.80;4.25;;;16.20;40.30;;;;;;4995588;28;20221;-67
2022/01/21 00:56:57;;;;;;;7.40;4.45;;;16.20;41.00;;;;;;4995383;28;20201;-66
2022/01/21 00:59:24;;;;;;;6.00;4.15;;;16.20;40.60;;;;;;4997223;28;20224;-64
2022/01/21 01:01:53;;;;;;;6.20;4.43;;;16.20;40.50;;;;;;4996362;28;20291;-67
2022/01/21 01:04:21;;;;;;;6.20;4.55;;;16.20;40.50;;;;;;4995658;28;20612;-67
2022/01/21 01:06:48;;;;;;;5.53;4.43;;;16.20;40.50;;;;;;4995175;28;20208;-66
2022/01/21 01:09:16;;;;;;;5.75;4.00;;;16.20;40.50;;;;;;4995467;28;20577;-65
2022/01/21 01:11:52;;;;;;;5.13;3.92;;;16.20;40.40;;;;;;4998658;28;20694;-67
2022/01/21 01:20:00;;;;;;;5.68;4.10;;;16.10;40.20;;;;;;5011048;28;20193;-66
2022/01/21 01:22:36;;;;;;;6.07;4.07;;;16.10;40.00;;;;;;4994818;28;20643;-67
2022/01/21 01:27:49;;;;;;;4.35;3.75;;;16.10;40.10;;;;;;4995702;28;20196;-64
2022/01/21 01:30:18;;;;;;;6.53;4.00;;;16.00;40.10;;;;;;4995674;28;20269;-65
2022/01/21 01:32:46;;;;;;;5.40;3.72;;;16.10;40.20;;;;;;4993907;28;20217;-66
2022/01/21 01:35:14;;;;;;;4.40;3.72;;;16.10;40.40;;;;;;4993819;28;20299;-66
2022/01/21 01:38:08;;;;;;;5.45;3.80;;;16.00;40.20;;;;;;5009927;28;20197;-67
2022/01/21 01:40:41;;;;;;;5.22;3.80;;;16.00;40.20;;;;;;4993982;28;20288;-67
2022/01/21 01:49:26;;;;;;;4.68;3.50;;;16.00;40.10;;;;;;4993391;28;20217;-67
2022/01/21 01:51:40;;;;;;;4.47;3.63;;;16.00;40.40;;;;;;5009639;28;20217;-69
2022/01/21 01:54:09;;;;;;;4.63;3.92;;;16.00;40.40;;;;;;4993286;28;20665;-67
2022/01/21 01:56:39;;;;;;;5.85;3.88;;;16.00;40.40;;;;;;4993060;28;20564;-67
2022/01/21 01:59:06;;;;;;;4.18;3.53;;;16.00;40.40;;;;;;4993304;28;20235;-65
2022/01/21 02:01:33;;;;;;;5.28;3.70;;;15.90;40.30;;;;;;4993127;28;20328;-67
2022/01/21 02:04:00;;;;;;;5.30;3.60;;;15.90;40.30;;;;;;4993157;28;20256;-67
2022/01/21 02:06:28;;;;;;;4.40;3.55;;;15.90;40.30;;;;;;4993293;28;20201;-67
2022/01/21 02:08:55;;;;;;;4.28;3.83;;;15.90;40.30;;;;;;4993350;28;20197;-67
2022/01/21 02:11:22;;;;;;;5.68;3.42;;;15.90;40.40;;;;;;4993327;28;20609;-67
2022/01/21 02:13:57;;;;;;;4.50;3.35;;;15.90;40.40;;;;;;4993547;28;20249;-68
2022/01/21 02:16:37;;;;;;;4.18;3.10;;;15.90;40.40;;;;;;4993185;28;20260;-67
2022/01/21 02:21:50;;;;;;;5.05;3.22;;;15.90;40.20;;;;;;4996361;28;20224;-68
2022/01/21 02:24:23;;;;;;;4.15;3.60;;;15.90;40.40;;;;;;4995110;28;20280;-68
2022/01/21 02:26:52;;;;;;;3.92;3.30;;;15.90;40.40;;;;;;4996209;28;20241;-69
2022/01/21 02:29:28;;;;;;;4.03;3.42;;;15.80;40.30;;;;;;4993671;28;20204;-69
2022/01/21 02:31:58;;;;;;;4.15;3.20;;;15.80;40.50;;;;;;4992351;28;20300;-67
2022/01/21 02:34:25;;;;;;;4.97;3.63;;;15.80;40.40;;;;;;4992789;28;20197;-67
2022/01/21 02:36:54;;;;;;;3.53;3.20;;;15.80;40.40;;;;;;4992575;28;20202;-67
2022/01/21 02:39:21;;;;;;;4.40;3.45;;;15.80;40.40;;;;;;4992357;28;20197;-67
2022/01/21 02:41:48;;;;;;;4.32;3.38;;;15.80;40.60;;;;;;4992595;28;20225;-67
2022/01/21 02:44:17;;;;;;;6.70;3.67;;;15.80;40.50;;;;;;4992615;28;20288;-67
2022/01/21 02:46:46;;;;;;;4.88;3.20;;;15.80;40.60;;;;;;4992454;28;20212;-66
2022/01/21 02:49:13;;;;;;;3.88;3.22;;;15.80;40.60;;;;;;4991952;28;20193;-69
2022/01/21 02:51:40;;;;;;;3.63;3.10;;;15.80;40.40;;;;;;4992131;28;20271;-67
2022/01/21 02:54:09;;;;;;;4.80;3.30;;;15.80;40.60;;;;;;4992182;28;20193;-65
2022/01/21 02:56:37;;;;;;;6.20;3.25;;;15.70;40.30;;;;;;4992291;28;20197;-67
2022/01/21 02:59:05;;;;;;;5.20;3.28;;;15.70;40.20;;;;;;4992318;28;20208;-67
2022/01/21 03:01:34;;;;;;;4.22;3.28;;;15.70;40.90;;;;;;4992189;28;20221;-68
2022/01/21 03:04:01;;;;;;;3.50;3.03;;;15.70;40.40;;;;;;4992632;28;20277;-67
2022/01/21 03:06:29;;;;;;;4.07;3.00;;;15.70;40.40;;;;;;4992137;28;20677;-65
2022/01/21 03:08:58;;;;;;;3.58;3.28;;;15.70;40.50;;;;;;4992548;28;20244;-66
2022/01/21 03:11:26;;;;;;;6.22;3.28;;;15.70;40.60;;;;;;4992214;28;20221;-67
2022/01/21 03:13:54;;;;;;;4.13;3.17;;;15.70;40.50;;;;;;4992214;28;20190;-67
2022/01/21 03:16:21;;;;;;;4.80;3.40;;;15.70;40.60;;;;;;4992429;28;20235;-67
2022/01/21 03:18:49;;;;;;;3.58;3.00;;;15.70;40.50;;;;;;4992120;28;20271;-67
2022/01/21 03:21:17;;;;;;;4.45;3.30;;;15.70;40.40;;;;;;4992128;28;20201;-67
2022/01/21 03:23:46;;;;;;;4.43;3.33;;;15.70;40.60;;;;;;4991976;28;20267;-65
2022/01/21 03:26:17;;;;;;;3.67;2.88;;;15.60;40.50;;;;;;4992243;28;20194;-68
2022/01/21 03:28:51;;;;;;;4.75;3.05;;;15.60;40.40;;;;;;4992110;28;20194;-68
2022/01/21 03:31:19;;;;;;;3.72;3.00;;;15.60;40.50;;;;;;4992060;28;20221;-68
2022/01/21 03:33:47;;;;;;;5.38;3.22;;;15.60;40.60;;;;;;4992232;28;20194;-66
2022/01/21 03:36:16;;;;;;;4.60;3.15;;;15.60;40.50;;;;;;4992029;28;20198;-68
2022/01/21 03:38:43;;;;;;;4.47;3.00;;;15.60;40.40;;;;;;4993202;28;20193;-66
2022/01/21 03:41:11;;;;;;;2.92;2.67;;;15.60;40.40;;;;;;4991839;28;20197;-68
2022/01/21 03:43:38;;;;;;;5.15;3.15;;;15.60;40.60;;;;;;4991979;28;20232;-69
2022/01/21 03:46:08;;;;;;;4.43;2.78;;;15.60;40.60;;;;;;4992090;28;20194;-69
2022/01/21 03:48:36;;;;;;;3.30;2.90;;;15.60;40.50;;;;;;4992021;28;20202;-69
2022/01/21 03:51:04;;;;;;;5.05;2.70;;;15.60;40.50;;;;;;4991783;28;20673;-67
2022/01/21 03:53:31;;;;;;;3.58;2.95;;;15.50;40.50;;;;;;4992044;28;20194;-69
2022/01/21 03:55:58;;;;;;;3.10;2.80;;;15.50;40.50;;;;;;4991949;28;20198;-68
2022/01/21 03:58:28;;;;;;;4.45;2.88;;;15.50;40.50;;;;;;4991994;28;20619;-68
2022/01/21 04:00:56;;;;;;;4.75;3.00;;;15.50;41.00;;;;;;4993890;28;20277;-65
2022/01/21 04:03:26;;;;;;;4.13;3.15;;;15.50;40.60;;;;;;4995435;28;20221;-67
2022/01/21 04:05:54;;;;;;;2.95;2.65;;;15.50;40.40;;;;;;4995836;28;20225;-65
2022/01/21 04:08:22;;;;;;;4.88;2.92;;;15.50;40.50;;;;;;4995938;28;20197;-68
2022/01/21 04:10:54;;;;;;;3.08;2.80;;;15.50;40.60;;;;;;4996161;28;20665;-67
2022/01/21 04:13:26;;;;;;;4.22;2.97;;;15.40;40.30;;;;;;4995931;28;20209;-65
2022/01/21 04:15:57;;;;;;;4.13;2.70;;;15.50;40.60;;;;;;4995779;28;20205;-67
2022/01/21 04:18:26;;;;;;;4.20;3.00;;;15.40;40.60;;;;;;4995142;28;20293;-68
2022/01/21 04:20:58;;;;;;;3.78;2.90;;;15.40;40.70;;;;;;4995350;28;20208;-67
2022/01/21 04:23:27;;;;;;;4.22;3.10;;;15.40;40.60;;;;;;4995137;28;20221;-67
2022/01/21 04:25:54;;;;;;;5.35;3.08;;;15.40;40.50;;;;;;4995103;28;20213;-66
2022/01/21 04:28:22;;;;;;;4.78;2.97;;;15.40;40.50;;;;;;4994846;28;20573;-68
2022/01/21 04:30:50;;;;;;;3.92;2.85;;;15.40;40.30;;;;;;4995042;28;20695;-67
2022/01/21 04:33:19;;;;;;;3.15;2.70;;;15.40;40.30;;;;;;4994806;28;20309;-67
2022/01/21 04:35:58;;;;;;;5.60;3.08;;;15.40;40.30;;;;;;4994918;28;20201;-67
2022/01/21 04:38:26;;;;;;;5.10;3.00;;;15.40;40.20;;;;;;4995048;28;20202;-67
2022/01/21 04:41:00;;;;;;;4.55;2.72;;;15.40;40.20;;;;;;4994574;28;20197;-66
2022/01/21 04:48:56;;;;;;;5.65;2.85;;;15.50;40.20;;;;;;5010809;28;20189;-67
2022/01/21 04:51:28;;;;;;;4.07;2.92;;;15.50;40.00;;;;;;4994282;28;20218;-66
2022/01/21 04:53:56;;;;;;;4.57;2.90;;;15.50;39.90;;;;;;4994637;28;20220;-67
2022/01/21 04:56:27;;;;;;;4.03;2.92;;;15.50;40.00;;;;;;4994536;28;20194;-67
2022/01/21 04:58:56;;;;;;;5.70;2.95;;;15.60;40.10;;;;;;4994561;28;20284;-66
2022/01/21 05:01:23;;;;;;;6.13;2.88;;;15.60;40.00;;;;;;4994127;28;20224;-67
2022/01/21 05:03:51;;;;;;;3.50;2.78;;;15.60;40.10;;;;;;4994092;28;20213;-67
2022/01/21 05:06:18;;;;;;;4.10;2.45;;;15.60;40.30;;;;;;4994405;28;20292;-69
2022/01/21 05:08:51;;;;;;;4.30;2.70;;;15.60;40.70;;;;;;4994037;28;20583;-68
2022/01/21 05:11:19;;;;;;;2.88;2.50;;;15.60;40.20;;;;;;4993941;28;20220;-67
2022/01/21 05:13:55;;;;;;;3.72;2.78;;;15.60;40.00;;;;;;4993329;28;20268;-67
2022/01/21 05:16:32;;;;;;;4.38;2.72;;;15.60;40.00;;;;;;4994028;28;20196;-66
2022/01/21 05:19:04;;;;;;;3.22;2.80;;;15.70;40.10;;;;;;4993920;28;20665;-67
2022/01/21 05:21:54;;;;;;;2.95;2.70;;;15.70;40.10;;;;;;4994457;28;20240;-66
2022/01/21 05:24:27;;;;;;;3.80;2.58;;;15.70;39.90;;;;;;4993716;28;20209;-67
2022/01/21 05:26:56;;;;;;;4.80;2.72;;;15.70;39.90;;;;;;4993745;28;20215;-67
2022/01/21 05:29:30;;;;;;;3.78;2.70;;;15.80;39.90;;;;;;4993735;28;20201;-69
2022/01/21 05:32:00;;;;;;;3.17;2.50;;;15.80;39.80;;;;;;4993495;28;20221;-68
2022/01/21 05:34:54;;;;;;;4.72;2.92;;;15.80;39.70;;;;;;4993715;28;20214;-65
2022/01/21 05:37:34;;;;;;;3.55;2.72;;;15.80;39.60;;;;;;4993853;28;20288;-69
2022/01/21 05:40:08;;;;;;;2.85;2.55;;;15.90;39.80;;;;;;4993762;28;20665;-66
2022/01/21 05:42:44;;;;;;;4.93;2.60;;;15.90;39.60;;;;;;5011060;28;20291;-65
2022/01/21 05:48:42;;;;;;;3.97;2.70;;;15.90;39.40;;;;;;4989218;28;20630;-68
2022/01/21 05:51:28;;;;;;;4.82;2.58;;;16.00;39.80;;;;;;4994845;28;20340;-68
2022/01/21 05:54:23;;;;;;;3.25;2.83;;;16.00;39.70;;;;;;4994145;28;20185;-70
2022/01/21 05:57:06;;;;;;;3.33;2.47;;;16.00;39.60;;;;;;4993272;28;20197;-68
2022/01/21 05:59:35;;;;;;;4.20;2.92;;;16.00;39.50;;;;;;4993135;28;20261;-70
2022/01/21 06:02:05;;;;;;;4.55;2.88;;;16.10;39.50;;;;;;4993199;28;20224;-67
2022/01/21 06:04:32;;;;;;;5.03;2.90;;;16.10;39.60;;;;;;4993025;28;20244;-68
2022/01/21 06:07:00;;;;;;;2.95;2.60;;;16.10;39.50;;;;;;4993091;28;20668;-67
2022/01/21 06:09:28;;;;;;;3.83;2.67;;;16.10;39.20;;;;;;4992793;28;20193;-67
2022/01/21 06:11:55;;;;;;;6.35;2.85;;;16.20;39.30;;;;;;4992996;28;20292;-68
2022/01/21 06:14:25;;;;;;;4.60;2.67;;;16.20;39.30;;;;;;4993049;28;20539;-68
2022/01/21 06:16:52;;;;;;;4.72;2.85;;;16.20;39.40;;;;;;4992760;28;20753;-68
2022/01/21 06:19:19;;;;;;;5.13;2.70;;;16.20;39.10;;;;;;4992803;28;20673;-67
2022/01/21 06:21:46;;;;;;;3.42;2.47;;;16.20;39.20;;;;;;4993081;28;20772;-68
2022/01/21 06:24:13;;;;;;;3.83;2.60;;;16.30;39.90;;;;;;4991952;28;20217;-68
2022/01/21 06:26:40;;;;;;;5.05;2.75;;;16.30;39.40;;;;;;4992589;28;20665;-68
2022/01/21 06:29:07;;;;;;;5.15;2.70;;;16.30;39.40;;;;;;4992888;28;20201;-69
2022/01/21 06:31:36;;;;;;;2.90;2.47;;;16.30;39.30;;;;;;4993019;28;20218;-69
2022/01/21 06:34:03;;;;;;;4.85;2.60;;;16.30;39.30;;;;;;4992373;28;20267;-67
2022/01/21 06:36:30;;;;;;;2.97;2.38;;;16.30;39.30;;;;;;4992626;28;20200;-66
2022/01/21 06:38:57;;;;;;;3.17;2.60;;;16.30;39.30;;;;;;4993016;28;20292;-68
2022/01/21 06:41:24;;;;;;;4.43;2.88;;;16.30;39.20;;;;;;4992298;28;20225;-68
2022/01/21 06:43:51;;;;;;;3.90;2.38;;;16.30;39.30;;;;;;4992515;28;20217;-68
2022/01/21 06:46:18;;;;;;;2.85;2.22;;;16.30;39.20;;;;;;4992574;28;20584;-68
2022/01/21 06:48:46;;;;;;;5.68;2.47;;;16.30;39.00;;;;;;4993991;28;20248;-68
2022/01/21 06:51:13;;;;;;;5.25;2.70;;;16.30;39.60;;;;;;4993710;28;20194;-67
2022/01/21 06:53:41;;;;;;;3.25;2.35;;;16.40;39.10;;;;;;4993343;28;20193;-65
2022/01/21 06:56:08;;;;;;;4.88;2.42;;;16.40;38.90;;;;;;4993108;28;20208;-67
2022/01/21 06:58:34;;;;;;;3.60;2.42;;;16.40;38.90;;;;;;4994750;28;20721;-67
2022/01/21 07:01:01;;;;;;;4.60;2.60;;;16.40;38.60;;;;;;4992569;28;20227;-67
2022/01/21 07:03:29;;;;;;;5.25;2.70;;;16.40;38.70;;;;;;4993981;28;20292;-66
2022/01/21 07:05:59;;;;;;;3.35;2.25;;;16.50;38.80;;;;;;4992801;28;20723;-68
2022/01/21 07:08:27;;;;;;;7.03;2.78;;;16.50;38.50;;;;;;4992310;28;20539;-67
2022/01/21 07:10:54;;;;;;;2.83;2.53;;;16.40;38.40;;;;;;4992046;28;20201;-65
2022/01/21 07:13:22;;;;;;;3.55;2.60;;;16.40;38.40;;;;;;4992353;28;20723;-67
2022/01/21 07:15:49;;;;;;;3.28;2.50;;;16.40;38.60;;;;;;4992311;28;20197;-66
2022/01/21 07:18:16;;;;;;;4.15;2.58;;;16.40;38.40;;;;;;4992076;28;20205;-66
2022/01/21 07:20:42;;;;;;;3.97;2.30;;;16.40;38.50;;;;;;4993185;28;20190;-65
2022/01/21 07:23:12;;;;;;;3.28;2.40;;;16.40;38.60;;;;;;4993206;28;20327;-66
2022/01/21 07:25:39;;;;;;;4.68;2.58;;;16.50;38.50;;;;;;4991973;28;20296;-67
2022/01/21 07:28:06;;;;;;;3.00;2.28;;;16.50;39.10;;;;;;4991799;28;20304;-66
2022/01/21 07:30:33;;;;;;;4.32;2.72;;;16.40;38.40;;;;;;4991931;28;20300;-66
2022/01/21 07:33:00;;;;;;;2.78;2.40;;;16.50;38.50;;;;;;4991965;28;20287;-66
2022/01/21 07:35:27;;;;;;;3.95;2.83;;;16.50;38.50;;;;;;4992091;28;20257;-66
2022/01/21 07:37:54;;;;;;;4.13;2.55;;;16.50;38.50;;;;;;4995686;28;20591;-66
2022/01/21 07:40:23;;;;;;;4.25;2.78;;;16.50;38.50;;;;;;4995728;28;20256;-66
2022/01/21 07:42:50;;;;;;;5.82;2.50;;;16.50;38.40;;;;;;4995762;28;20714;-65
2022/01/21 07:45:17;;;;;;;4.28;2.67;;;16.50;38.50;;;;;;4995817;28;20406;-68
2022/01/21 07:47:44;;;;;;;4.35;2.60;;;16.50;38.40;;;;;;4996857;28;20720;-65
2022/01/21 07:50:11;;;;;;;4.78;2.72;;;16.50;38.30;;;;;;4995688;28;20692;-66
2022/01/21 07:52:38;;;;;;;5.38;2.80;;;16.50;38.30;;;;;;4996819;28;20215;-67
2022/01/21 07:55:06;;;;;;;4.25;2.60;;;16.60;38.20;;;;;;4995590;28;20680;-66
2022/01/21 07:57:35;;;;;;;4.22;2.53;;;16.60;38.20;;;;;;4995412;28;20201;-66
2022/01/21 08:00:02;;;;;;;3.95;2.60;;;16.60;38.30;;;;;;4996404;28;20208;-67
2022/01/21 08:02:30;;;;;;;3.58;2.80;;;16.70;38.10;;;;;;4995134;28;20232;-68
2022/01/21 08:05:01;;;;;;;4.13;2.58;;;16.70;38.10;;;;;;4996215;28;20295;-67
2022/01/21 08:07:28;;;;;;;5.78;2.47;;;16.70;37.90;;;;;;4996738;28;20212;-68
2022/01/21 08:09:55;;;;;;;4.07;2.95;;;16.70;37.90;;;;;;4995180;28;20220;-67
2022/01/21 08:12:22;;;;;;;5.38;2.67;;;16.80;37.70;;;;;;4995378;28;20213;-66
2022/01/21 08:14:51;;;;;;;4.50;2.75;;;16.80;37.60;;;;;;4994914;28;20579;-67
2022/01/21 08:17:18;;;;;;;3.63;2.60;;;16.80;37.60;;;;;;4995016;28;20201;-66
2022/01/21 08:19:45;;;;;;;4.93;2.58;;;16.90;37.60;;;;;;4995996;28;20196;-67
2022/01/21 08:22:12;;;;;;;3.85;2.58;;;16.90;37.60;;;;;;4994978;28;20681;-68
2022/01/21 08:24:39;;;;;;;4.63;2.60;;;17.00;37.50;;;;;;4996010;28;20209;-65
2022/01/21 08:27:07;;;;;;;3.38;2.42;;;17.00;37.40;;;;;;4994637;28;20197;-68
2022/01/21 08:29:33;;;;;;;5.15;2.72;;;17.00;37.40;;;;;;4995971;28;20616;-65
2022/01/21 08:32:02;;;;;;;3.88;2.20;;;17.10;37.10;;;;;;4994501;28;20221;-66
2022/01/21 08:34:32;;;;;;;5.28;2.58;;;17.10;37.40;;;;;;4994692;28;20201;-67
2022/01/21 08:37:00;;;;;;;4.60;2.75;;;17.10;36.90;;;;;;4994671;28;20197;-66
2022/01/21 08:39:27;;;;;;;3.53;2.50;;;17.10;36.90;;;;;;4994619;28;20245;-66
2022/01/21 08:41:55;;;;;;;4.47;2.65;;;17.10;36.70;;;;;;4994523;28;20816;-67
2022/01/21 08:44:22;;;;;;;3.53;2.35;;;17.20;37.00;;;;;;4994289;28;20217;-66
2022/01/21 08:46:49;;;;;;;5.15;2.58;;;17.10;37.00;;;;;;4995295;28;20204;-65
2022/01/21 08:49:19;;;;;;;3.42;2.55;;;17.20;36.90;;;;;;4993844;28;20210;-66
2022/01/21 08:51:51;;;;;;;4.60;2.70;;;17.20;36.90;;;;;;5010538;28;20617;-68
2022/01/21 08:54:18;;;;;;;4.80;2.65;;;17.20;36.90;;;;;;4995624;28;20174;-66
2022/01/21 08:56:45;;;;;;;2.85;2.33;;;17.20;36.90;;;;;;4994421;28;20206;-66
2022/01/21 08:59:12;;;;;;;4.00;2.30;;;17.20;36.60;;;;;;4994436;28;20666;-66
2022/01/21 09:01:40;;;;;;;4.85;2.97;;;17.20;36.70;;;;;;4993963;28;20229;-67
2022/01/21 09:04:07;;;;;;;3.10;2.50;;;17.20;36.80;;;;;;4994064;28;20697;-66
2022/01/21 09:06:36;;;;;;;4.18;2.72;;;17.20;37.20;;;;;;4994322;28;20223;-66
2022/01/21 09:09:03;;;;;;;5.10;2.63;;;17.20;36.80;;;;;;4994218;28;20232;-66
2022/01/21 09:11:30;;;;;;;3.50;2.50;;;17.30;36.80;;;;;;4995316;28;20220;-66
2022/01/21 09:13:58;;;;;;;5.90;2.85;;;17.20;36.90;;;;;;4994017;28;20284;-68
2022/01/21 09:16:25;;;;;;;3.78;2.63;;;17.20;37.50;;;;;;4995272;28;20558;-66
2022/01/21 09:18:55;;;;;;;4.15;2.47;;;17.20;36.70;;;;;;4993814;28;20661;-66
2022/01/21 09:21:24;;;;;;;2.85;2.30;;;17.20;37.40;;;;;;4994860;28;20213;-66
2022/01/21 09:23:53;;;;;;;5.13;2.78;;;17.20;36.70;;;;;;4995223;28;20869;-68
2022/01/21 09:26:21;;;;;;;4.57;2.85;;;17.30;37.30;;;;;;4995287;28;20308;-66
2022/01/21 09:28:48;;;;;;;4.32;2.42;;;17.20;36.90;;;;;;4995416;28;20204;-68
2022/01/21 09:31:15;;;;;;;4.05;2.60;;;17.30;37.50;;;;;;4993682;28;20208;-66
2022/01/21 09:33:43;;;;;;;5.15;2.85;;;17.30;36.80;;;;;;4993589;28;20201;-67
2022/01/21 09:36:10;;;;;;;3.58;2.40;;;17.30;36.60;;;;;;5010278;28;20648;-67
2022/01/21 09:38:37;;;;;;;3.17;2.60;;;17.30;36.50;;;;;;4993531;28;20523;-66
2022/01/21 09:41:06;;;;;;;4.50;2.67;;;17.40;36.70;;;;;;4994959;28;20637;-66
2022/01/21 09:43:33;;;;;;;3.97;2.65;;;17.40;36.60;;;;;;4994234;28;20648;-67
2022/01/21 09:46:05;;;;;;;4.25;2.58;;;17.40;36.40;;;;;;4993815;28;20222;-67
2022/01/21 09:48:37;;;;;;;3.95;2.55;;;17.40;36.30;;;;;;4994793;28;20219;-66
2022/01/21 09:51:06;;;;;;;4.85;2.67;;;17.50;36.60;;;;;;4994097;28;20225;-68
2022/01/21 09:53:35;;;;;;;2.95;2.50;;;17.50;36.40;;;;;;4993374;28;20205;-65
2022/01/21 09:56:03;;;;;;;3.72;2.67;;;17.50;36.50;;;;;;4993325;28;20197;-68
2022/01/21 09:58:31;;;;;;;6.07;2.92;;;17.50;36.50;;;;;;4994701;28;20194;-65
2022/01/21 10:00:59;;;;;;;3.45;2.30;;;17.50;36.20;;;;;;4993190;28;20216;-67
2022/01/21 10:03:27;;;;;;;4.85;2.53;;;17.50;36.30;;;;;;4994643;28;20217;-66
2022/01/21 10:05:54;;;;;;;4.70;2.83;;;17.50;36.30;;;;;;4993156;28;20217;-66
2022/01/21 10:08:23;;;;;;;5.72;2.67;;;17.50;36.20;;;;;;4993190;28;20197;-68
2022/01/21 10:10:50;;;;;;;4.13;2.40;;;17.60;36.10;;;;;;4993325;28;20625;-67
2022/01/21 10:13:18;;;;;;;5.43;2.70;;;17.60;36.10;;;;;;4993229;28;20217;-69
2022/01/21 10:15:46;;;;;;;4.05;2.38;;;17.60;36.20;;;;;;4994429;28;20192;-67
2022/01/21 10:18:15;;;;;;;4.55;2.65;;;17.60;35.90;;;;;;4994220;28;20194;-67
2022/01/21 10:21:01;;;;;;;4.13;2.80;;;17.60;35.90;;;;;;4993037;28;20219;-65
2022/01/21 10:23:29;;;;;;;5.32;2.97;;;17.70;35.80;;;;;;4993211;28;20629;-65
2022/01/21 10:25:58;;;;;;;4.07;2.50;;;17.70;35.90;;;;;;4993077;28;20335;-66
2022/01/21 10:28:25;;;;;;;3.92;2.53;;;17.70;36.40;;;;;;4992930;28;20205;-65
2022/01/21 10:31:06;;;;;;;3.50;2.13;;;17.70;35.80;;;;;;4992975;28;20205;-67
2022/01/21 10:33:38;;;;;;;4.00;2.40;;;17.70;35.80;;;;;;4993013;28;20289;-67
2022/01/21 10:36:10;;;;;;;5.35;2.72;;;17.70;35.80;;;;;;4993142;28;20208;-68
2022/01/21 10:38:42;;;;;;;3.78;2.67;;;17.70;35.70;;;;;;4994326;28;20189;-67
2022/01/21 10:41:10;;;;;;;3.72;2.88;;;17.70;35.80;;;;;;4994373;28;20649;-65
2022/01/21 10:43:37;;;;;;;4.20;2.47;;;17.70;35.80;;;;;;4993009;28;20205;-66
2022/01/21 10:46:06;;;;;;;3.63;2.50;;;17.70;35.90;;;;;;4993785;28;20225;-67
2022/01/21 10:48:54;;;;;;;5.63;2.65;;;17.70;35.80;;;;;;4996159;28;20205;-67
2022/01/21 10:51:23;;;;;;;4.38;2.55;;;17.70;36.30;;;;;;4999704;28;20288;-65
2022/01/21 10:53:50;;;;;;;3.22;2.20;;;17.70;35.60;;;;;;5000295;28;20701;-67
2022/01/21 10:56:17;;;;;;;4.47;2.83;;;17.80;35.80;;;;;;4995926;28;20262;-68
2022/01/21 10:58:45;;;;;;;3.38;2.40;;;17.80;35.90;;;;;;4993999;28;20203;-66
2022/01/21 11:01:17;;;;;;;4.70;2.50;;;17.80;35.90;;;;;;4992041;28;20654;-66
2022/01/21 11:04:03;;;;;;;7.57;2.42;;;17.80;36.00;;;;;;4992377;28;20292;-66
2022/01/21 11:06:37;;;;;;;2.97;2.60;;;17.80;35.90;;;;;;4993801;28;20182;-67
2022/01/21 11:09:15;;;;;;;4.32;2.47;;;17.80;35.80;;;;;;4992439;28;20209;-69
2022/01/21 11:11:43;;;;;;;4.32;2.80;;;17.80;35.60;;;;;;4992983;28;20213;-67
2022/01/21 11:14:11;;;;;;;4.88;2.58;;;17.80;35.60;;;;;;4992141;28;20264;-65
2022/01/21 11:16:43;;;;;;;3.15;2.60;;;17.90;35.70;;;;;;4991944;28;20200;-65
2022/01/21 11:19:12;;;;;;;4.13;2.40;;;17.90;35.70;;;;;;4992445;28;20747;-66
2022/01/21 11:21:47;;;;;;;3.85;2.55;;;17.90;35.80;;;;;;4994049;28;20709;-68
2022/01/21 11:24:15;;;;;;;4.97;2.50;;;17.90;35.60;;;;;;4993692;28;20193;-66
2022/01/21 11:26:43;;;;;;;4.70;2.60;;;17.90;35.60;;;;;;4992209;28;20615;-67
2022/01/21 11:29:11;;;;;;;5.18;2.67;;;17.90;35.70;;;;;;4992118;28;20296;-68
2022/01/21 11:31:40;;;;;;;4.93;2.58;;;18.00;35.60;;;;;;4992507;28;20221;-66
2022/01/21 11:34:07;;;;;;;2.72;2.40;;;17.90;35.50;;;;;;4993539;28;20248;-67
2022/01/21 11:36:34;;;;;;;3.55;2.28;;;17.90;35.30;;;;;;4992171;28;20205;-67
2022/01/21 11:39:02;;;;;;;3.38;2.30;;;17.90;35.50;;;;;;4993099;28;20295;-70
2022/01/21 11:41:30;;;;;;;3.20;2.50;;;18.00;35.50;;;;;;4992118;28;20701;-70
2022/01/21 11:44:01;;;;;;;3.22;2.20;;;18.00;35.60;;;;;;4992302;28;20202;-68
2022/01/21 11:46:58;;;;;;;2.95;2.20;;;17.90;35.50;;;;;;4992583;28;20400;-69
2022/01/21 11:49:28;;;;;;;3.50;2.35;;;17.90;35.60;;;;;;4992357;28;20240;-68
2022/01/21 11:52:09;;;;;;;3.25;2.25;;;17.90;35.60;;;;;;4992077;28;20645;-68
2022/01/21 11:54:37;;;;;;;2.95;2.38;;;18.00;35.50;;;;;;4992187;28;20248;-68
2022/01/21 11:57:05;;;;;;;2.97;2.30;;;17.90;35.60;;;;;;4992105;28;20209;-67
2022/01/21 11:59:39;;;;;;;3.50;2.20;;;17.90;35.80;;;;;;4992243;28;20201;-67
2022/01/21 12:02:19;;;;;;;3.75;2.25;;;17.90;35.80;;;;;;4993115;28;20273;-68
2022/01/21 12:04:48;;;;;;;4.90;2.45;;;18.00;35.60;;;;;;4993138;28;20208;-67
2022/01/21 12:07:45;;;;;;;4.35;2.60;;;18.00;35.40;;;;;;4991728;28;20209;-68
2022/01/21 12:10:12;;;;;;;5.63;2.50;;;18.00;35.50;;;;;;4992125;28;20204;-68
2022/01/21 12:13:15;;;;;;;5.07;2.30;;;18.00;35.20;;;;;;4991824;28;20307;-66
2022/01/21 12:19:09;;;;;;;3.10;1.90;;;18.00;35.40;;;;;;4989578;28;20197;-64
2022/01/21 12:21:38;;;;;;;3.15;2.30;;;18.00;35.30;;;;;;4992553;28;20244;-69
2022/01/21 12:24:07;;;;;;;3.08;2.17;;;18.00;35.30;;;;;;4994413;28;20393;-67
2022/01/21 12:26:35;;;;;;;2.45;2.20;;;17.90;35.40;;;;;;4996666;28;20627;-65
2022/01/21 12:29:22;;;;;;;4.00;2.28;;;18.00;35.10;;;;;;4995523;28;20293;-67
2022/01/21 12:31:59;;;;;;;5.20;2.20;;;17.90;35.20;;;;;;4995605;28;20570;-68
2022/01/21 12:34:26;;;;;;;4.75;2.20;;;18.00;35.30;;;;;;4997306;28;20221;-69
2022/01/21 12:36:56;;;;;;;3.47;2.20;;;18.00;35.10;;;;;;4997451;28;20568;-68
2022/01/21 12:39:37;;;;;;;4.30;2.20;;;18.00;35.20;;;;;;4995708;28;20194;-70
2022/01/21 12:42:29;;;;;;;2.95;1.90;;;18.00;35.30;;;;;;4995912;28;20220;-70
2022/01/21 12:44:57;;;;;;;4.45;2.20;;;18.00;35.20;;;;;;4996650;28;20217;-68
2022/01/21 12:47:29;;;;;;;4.07;2.15;;;18.00;35.10;;;;;;4995298;28;20201;-68
2022/01/21 12:49:57;;;;;;;4.47;2.38;;;18.00;35.40;;;;;;4995313;28;20296;-66
2022/01/21 12:53:14;;;;;;;2.20;2.00;;;17.90;35.10;;;;;;4994891;28;20312;-66
2022/01/21 12:55:55;;;;;;;3.25;2.22;;;17.90;35.20;;;;;;4996151;28;20236;-68
2022/01/21 12:58:24;;;;;;;5.75;2.40;;;17.90;35.20;;;;;;4994682;28;20204;-67
2022/01/21 13:00:56;;;;;;;4.68;2.33;;;17.90;35.30;;;;;;4996000;28;20225;-68
2022/01/21 13:03:27;;;;;;;4.03;2.45;;;17.90;35.60;;;;;;4994500;28;20233;-68
2022/01/21 13:06:01;;;;;;;3.53;2.15;;;17.90;35.60;;;;;;4995714;28;20236;-68
2022/01/21 13:08:34;;;;;;;4.72;2.10;;;17.90;35.30;;;;;;4995945;28;20189;-68
2022/01/21 13:11:16;;;;;;;3.92;2.28;;;17.90;35.40;;;;;;4994658;28;20575;-68
2022/01/21 13:13:58;;;;;;;4.68;2.03;;;17.90;35.40;;;;;;4995902;28;20213;-69
2022/01/21 13:16:27;;;;;;;3.92;2.20;;;17.90;35.40;;;;;;4994609;28;20194;-69
2022/01/21 13:19:00;;;;;;;4.35;2.20;;;17.90;35.50;;;;;;4995437;28;20201;-67
2022/01/21 13:21:27;;;;;;;4.20;2.15;;;17.90;35.20;;;;;;4997090;28;20793;-68
2022/01/21 13:23:57;;;;;;;2.83;2.03;;;17.90;35.40;;;;;;4996253;28;20181;-68
2022/01/21 13:26:25;;;;;;;2.92;2.00;;;17.90;35.90;;;;;;4994368;28;20272;-68
2022/01/21 13:29:01;;;;;;;3.70;2.15;;;17.90;35.40;;;;;;4994286;28;20193;-68
2022/01/21 13:31:29;;;;;;;2.97;2.17;;;17.90;35.20;;;;;;4993838;28;20732;-68
2022/01/21 13:34:07;;;;;;;3.28;1.80;;;17.90;35.40;;;;;;4993523;28;20201;-68
2022/01/21 13:36:42;;;;;;;2.63;2.17;;;17.90;35.40;;;;;;4994118;28;20189;-67
2022/01/21 13:39:13;;;;;;;3.63;2.20;;;17.90;35.50;;;;;;4995222;28;20177;-67
2022/01/21 13:41:48;;;;;;;2.75;1.92;;;18.00;35.40;;;;;;4993415;28;20316;-69
2022/01/21 13:44:23;;;;;;;2.63;1.90;;;18.00;35.50;;;;;;4993777;28;20212;-68